EDT,Max TemperatureF,Mean TemperatureF,Min TemperatureF,Max Dew PointF,MeanDew PointF,Min DewpointF,Max Humidity, Mean Humidity, Min Humidity, Max Sea Level PressureIn, Mean Sea Level PressureIn, Min Sea Level PressureIn, Max VisibilityMiles, Mean VisibilityMiles, Min VisibilityMiles, Max Wind SpeedMPH, Mean Wind SpeedMPH, Max Gust SpeedMPH,PrecipitationIn, CloudCover, Events, WindDirDegrees
2013-5-1,81,68,57,59,55,51,83,64,40,30.19,30.15,30.06,10,10,10,13,7,20,0.00,0,,125
2013-5-2,75,66,59,55,53,49,75,60,46,30.23,30.16,30.10,10,10,10,16,8,24,0.00,0,,136
2013-5-3,78,68,60,54,46,34,78,51,22,30.10,30.05,29.99,10,10,10,21,10,29,0.00,1,,129
2013-5-4,70,63,57,44,42,36,62,47,33,30.06,30.03,29.99,10,10,10,18,9,24,0.00,0,,114
2013-5-5,73,62,52,43,41,37,71,49,28,30.03,29.99,29.95,10,10,10,17,9,24,0.00,0,,81
2013-5-6,72,62,54,51,44,37,62,50,45,30.00,29.97,29.93,10,10,10,17,7,21,0.00,5,,88
2013-5-7,73,64,55,55,51,45,75,62,52,30.01,29.97,29.94,10,10,10,16,7,20,0.00,5,,57
2013-5-8,77,66,57,54,51,49,77,60,40,29.98,29.95,29.91,10,10,10,8,4,,0.00,5,,9
2013-5-9,81,67,54,58,52,42,90,64,26,29.97,29.94,29.90,10,10,9,17,4,28,0.04,3,Rain,258
2013-5-10,72,60,51,62,57,46,94,85,73,29.90,29.81,29.74,10,9,3,17,9,26,0.32,6,Rain,226
2013-5-11,57,49,41,47,43,34,89,82,71,29.95,29.86,29.81,10,9,4,25,9,32,0.04,7,Rain,288
2013-5-12,52,44,37,34,30,26,86,62,41,30.12,30.01,29.94,10,10,10,21,11,31,0.01,3,,278
2013-5-13,57,44,32,32,27,22,85,56,28,30.18,30.14,30.10,10,10,10,12,4,18,0.00,2,,278
2013-5-14,75,58,42,49,38,30,67,52,37,30.11,29.98,29.79,10,10,10,26,11,33,0.00,3,,170
2013-5-15,86,78,66,57,51,43,55,41,28,29.78,29.73,29.67,10,10,5,25,17,33,0.00,1,,264
2013-5-16,82,68,55,52,45,37,69,45,21,29.94,29.87,29.78,10,10,8,9,3,,0.00,1,Thunderstorm,243
2013-5-17,82,67,54,52,46,36,75,52,38,30.10,30.03,29.95,10,10,10,17,6,23,0.00,1,,57
2013-5-18,79,66,55,57,48,38,62,54,45,30.10,30.05,30.00,10,10,10,12,6,,0.00,4,,60
2013-5-19,84,70,55,64,58,47,77,62,44,30.00,29.94,29.88,10,10,9,13,5,,0.00,1,,144
2013-5-20,89,77,66,69,65,62,87,64,44,29.96,29.88,29.82,10,10,7,23,11,29,0.00,1,,195
2013-5-21,87,78,70,65,60,56,81,57,37,29.84,29.79,29.73,10,10,10,25,13,34,0.00,0,,207
2013-5-22,82,72,64,64,60,57,80,66,45,29.76,29.73,29.68,10,10,2,26,13,33,0.07,4,Rain,213
2013-5-23,70,58,46,58,52,39,94,81,65,30.13,29.88,29.73,10,8,2,23,13,33,0.04,7,Rain,303
2013-5-24,61,52,43,40,37,33,89,64,38,30.33,30.26,30.13,10,10,10,20,11,23,0.00,4,,356
2013-5-25,66,52,39,40,37,31,89,58,33,30.39,30.32,30.25,10,10,7,9,2,,0.00,0,,50
2013-5-26,69,56,43,39,33,27,80,44,22,30.34,30.27,30.21,10,10,10,9,4,,0.00,0,,72
2013-5-27,62,56,50,53,45,32,90,68,40,30.24,30.12,29.97,10,10,4,18,8,26,0.36,6,Rain,124
2013-5-28,82,70,57,67,62,54,94,75,58,29.97,29.92,29.87,10,9,2,25,11,32,0.27,4,Rain-Thunderstorm,204
2013-5-29,87,79,71,63,60,58,64,55,40,30.01,29.95,29.89,10,10,10,21,15,30,0.00,1,,224
2013-5-30,90,78,68,66,62,58,81,60,40,30.08,30.02,29.96,10,10,10,21,11,28,0.00,1,,194
2013-5-31,84,76,69,68,65,62,90,74,51,30.00,29.95,29.90,10,10,5,26,13,38,0.18,3,Rain-Thunderstorm,198